Thunder radar more information blitzortung!


Radar de pluja more information rain snow radar


Visita la nostra xarxa de llocs de meteo:

Template documentation
and downloads

And another site



No particular awareness of the weather is required.    There are no Weather-warnings

Pagina Historial Weather Underground text

Diari Resum Setembre 15, 2017 Unitats:  Mètric    Imperial   Tant
« Previous Dia
SegĂźent Dia »
Diari Setmana Mensual Anual Personalitzada
  Maxima: Minima: Media:
Temperatura: -17.8 °C -12.4 °C -10.7 °C
Punt de rosada: -17.8 °C -13.4 °C -11.8 °C
Humitat: Humidity % 64 % 87 %
Wind Speed: 0 km/h 0 km/h 3.5 km/h
RĂ fegues de vent: 0 km/h - -
Vent:- - SSW
Pression baro: 0 hPa 34256.2 hPa -
Precipitacions: 373.38 mm    
Historical Graphs
 
 
Dades de taula per Setembre 15, 2017
Temps Temperatura Punt de rosada Pression baro Vent Wind Speed RĂ fegues de vent Humitat Rainfall Rate (Hourly)
-17.8 °C -17.8 °C 0 hPa Calm     Humidity % 0 mm
00:00 -7.6 °C -11.4 °C 34395 hPa ENE 9 km/h 9 km/h 64 % 0 mm
00:05 -7.6 °C -11.3 °C 34361.1 hPa SE 11.9 km/h 11.9 km/h 65 % 0 mm
00:15 -10.2 °C -11.6 °C 34361.1 hPa NE 2.6 km/h 7.7 km/h 85 % 0 mm
00:25 -10.2 °C -11.7 °C 34361.1 hPa NNE 2.6 km/h 5.1 km/h 84 % 0 mm
00:35 -10.2 °C -11.6 °C 34361.1 hPa North 2.6 km/h 2.6 km/h 85 % 0 mm
00:45 -10.2 °C -11.6 °C 34327.3 hPa Calm   5.1 km/h 85 % 0 mm
00:55 -10.2 °C -11.6 °C 34327.3 hPa Calm   5.1 km/h 85 % 0 mm
01:05 -10.2 °C -11.6 °C 34327.3 hPa WSW 2.6 km/h 2.6 km/h 85 % 0 mm
01:15 -10.2 °C -11.6 °C 34327.3 hPa Calm   2.6 km/h 85 % 0 mm
01:25 -10.3 °C -11.7 °C 34361.1 hPa NNE 2.6 km/h 7.7 km/h 85 % 0 mm
01:35 -10.3 °C -11.7 °C 34361.1 hPa Calm   5.1 km/h 85 % 0 mm
01:45 -10.3 °C -11.7 °C 34361.1 hPa Calm   5.1 km/h 85 % 0 mm
01:55 -10.4 °C -11.8 °C 34361.1 hPa NNE 2.6 km/h 7.7 km/h 84 % 0 mm
02:05 -10.4 °C -11.9 °C 34361.1 hPa NNE 5.1 km/h 7.7 km/h 84 % 0 mm
02:15 -10.4 °C -11.9 °C 34361.1 hPa NNE 2.6 km/h 5.1 km/h 84 % 0 mm
02:25 -10.4 °C -11.8 °C 34361.1 hPa Calm   5.1 km/h 84 % 0 mm
02:35 -10.3 °C -11.8 °C 34361.1 hPa WNW 2.6 km/h 5.1 km/h 84 % 0 mm
02:45 -10.4 °C -11.8 °C 34361.1 hPa WNW 5.1 km/h 5.1 km/h 84 % 0 mm
02:55 -10.4 °C -11.8 °C 34361.1 hPa NW 2.6 km/h 5.1 km/h 84 % 0 mm
03:05 -10.4 °C -11.8 °C 34361.1 hPa North 2.6 km/h 5.1 km/h 84 % 0 mm
03:15 -10.4 °C -11.8 °C 34361.1 hPa NNE 2.6 km/h 5.1 km/h 84 % 0 mm
03:25 -10.4 °C -11.9 °C 34361.1 hPa NE 2.6 km/h 2.6 km/h 84 % 0 mm
03:35 -10.4 °C -11.9 °C 34361.1 hPa NNW 2.6 km/h 5.1 km/h 84 % 0 mm
03:45 -10.6 °C -12.2 °C 34361.1 hPa West 2.6 km/h 5.1 km/h 82 % 0 mm
03:55 -10.5 °C -12.2 °C 34361.1 hPa SSW 2.6 km/h 2.6 km/h 82 % 0 mm
04:05 -10.6 °C -12.3 °C 34361.1 hPa SW 5.1 km/h 5.1 km/h 81 % 0 mm
04:15 -10.6 °C -12.4 °C 34361.1 hPa WSW 2.6 km/h 5.1 km/h 81 % 0 mm
04:25 -10.5 °C -12.3 °C 34361.1 hPa Calm   2.6 km/h 81 % 0 mm
04:35 -10.5 °C -12.4 °C 34361.1 hPa East 2.6 km/h   80 % 0 mm
04:45 -10.4 °C -12.2 °C 34361.1 hPa Calm   5.1 km/h 81 % 0 mm
04:55 -10.5 °C -12.3 °C 34361.1 hPa NNE 2.6 km/h 5.1 km/h 81 % 0 mm
05:05 -10.4 °C -12.2 °C 34361.1 hPa Calm   7.7 km/h 81 % 0 mm
05:15 -10.5 °C -12.2 °C 34361.1 hPa Calm   5.1 km/h 82 % 0 mm
05:25 -10.5 °C -12.1 °C 34361.1 hPa Calm     83 % 0 mm
10:33 -10.6 °C -12.1 °C 34361.1 hPa SW 6 km/h   83 % 0 mm
10:34 -10.6 °C -12.1 °C 34361.1 hPa SW 6 km/h   83 % 0 mm
10:35 -10.6 °C -12.1 °C 34361.1 hPa NNW 9 km/h   83 % 0 mm
10:40 -10.6 °C -12.2 °C 34361.1 hPa NW 2.3 km/h   83 % 0 mm
10:45 -10.7 °C -12.2 °C 34361.1 hPa West 3.7 km/h   83 % 0 mm
10:50 -10.6 °C -12.2 °C 34361.1 hPa SSE 6 km/h 6 km/h 83 % 0 mm
10:55 -10.6 °C -12.1 °C 34361.1 hPa SSE 3.1 km/h   84 % 0 mm
11:00 -10.7 °C -12.1 °C 34361.1 hPa SE 5.6 km/h 5.6 km/h 84 % 0 mm
11:05 -10.8 °C -12.3 °C 34361.1 hPa WNW 3.1 km/h   83 % 0 mm
11:10 -10.7 °C -12.2 °C 34361.1 hPa East 6 km/h 6 km/h 84 % 0 mm
11:15 -10.7 °C -12.1 °C 34361.1 hPa NNE 3.1 km/h   84 % 0 mm
11:20 -10.7 °C -12.2 °C 34361.1 hPa Calm     84 % 0 mm
11:25 -10.7 °C -12.1 °C 34361.1 hPa Calm     85 % 0 mm
11:30 -10.7 °C -12.1 °C 34361.1 hPa SSE 3.1 km/h   85 % 0 mm
11:35 -10.7 °C -12.1 °C 34361.1 hPa ESE 3.7 km/h 3.7 km/h 85 % 0 mm
11:40 -10.7 °C -12.1 °C 34361.1 hPa SW 2.3 km/h   85 % 0 mm
11:45 -10.6 °C -11.9 °C 34361.1 hPa South 3.1 km/h   85 % 0 mm
11:50 -10.6 °C -11.9 °C 34361.1 hPa ESE 3.1 km/h   85 % 0 mm
11:55 -10.6 °C -12 °C 34361.1 hPa WSW 3.1 km/h 3.7 km/h 85 % 0 mm
12:00 -10.6 °C -12 °C 34361.1 hPa SW 3.1 km/h   85 % 0 mm
12:05 -10.6 °C -12 °C 34361.1 hPa South 3.1 km/h   85 % 0 mm
12:10 -10.6 °C -12 °C 34361.1 hPa ESE 3.1 km/h 3.1 km/h 85 % 0 mm
12:15 -10.6 °C -11.9 °C 34361.1 hPa SW 4.2 km/h   85 % 25.4 mm
12:20 -10.6 °C -11.8 °C 34361.1 hPa SW 3.7 km/h 3.7 km/h 86 % 25.4 mm
12:25 -10.6 °C -12 °C 34361.1 hPa NNW 3.1 km/h   85 % 25.4 mm
12:30 -10.6 °C -11.8 °C 34361.1 hPa WNW 3.1 km/h   86 % 25.4 mm
12:35 -10.5 °C -11.8 °C 34327.3 hPa Calm     86 % 25.4 mm
12:40 -10.4 °C -11.7 °C 34327.3 hPa West 6 km/h 6 km/h 86 % 25.4 mm
12:41 -10.4 °C -11.7 °C 34327.3 hPa WNW 6 km/h 6 km/h 86 % 25.4 mm
12:46 -10.4 °C -11.7 °C 34327.3 hPa WSW 6.8 km/h   86 % 25.4 mm
12:51 -10.4 °C -11.8 °C 34361.1 hPa SW 9 km/h 9 km/h 85 % 25.4 mm
12:56 -10.4 °C -11.7 °C 34361.1 hPa Calm     86 % 25.4 mm
13:01 -10.5 °C -11.8 °C 34361.1 hPa NNE 3.1 km/h 3.1 km/h 86 % 25.4 mm
13:06 -10.4 °C -11.7 °C 34327.3 hPa WSW 3.7 km/h   86 % 25.4 mm
13:11 -10.3 °C -11.5 °C 34327.3 hPa West 3.1 km/h   87 % 25.4 mm
13:16 -10.4 °C -11.6 °C 34327.3 hPa NNW 3.1 km/h 3.1 km/h 87 % 0 mm
13:21 -10.3 °C -11.5 °C 34327.3 hPa SW 3.1 km/h 3.7 km/h 87 % 0 mm
13:26 -10.2 °C -11.4 °C 34327.3 hPa WSW 3.7 km/h 3.7 km/h 87 % 0 mm
13:31 -10.2 °C -11.4 °C 34327.3 hPa SW 3.1 km/h   87 % 0 mm
13:34 -10.3 °C -11.4 °C 34327.3 hPa WNW 3.1 km/h   87 % 0 mm
13:39 -10.3 °C -11.5 °C 34327.3 hPa South 3.1 km/h   87 % 25.4 mm
13:44 -10.4 °C -11.6 °C 34327.3 hPa ENE 3.1 km/h   87 % 25.4 mm
13:49 -10.3 °C -11.5 °C 34327.3 hPa WSW 6 km/h 6 km/h 87 % 25.4 mm
13:54 -10.3 °C -11.5 °C 34327.3 hPa SW 6 km/h   87 % 25.4 mm
13:59 -10.3 °C -11.4 °C 34327.3 hPa Calm     87 % 25.4 mm
14:04 -10.3 °C -11.3 °C 34327.3 hPa WNW 3.1 km/h   88 % 25.4 mm
14:09 -10.3 °C -11.5 °C 34327.3 hPa SW 6 km/h 6 km/h 87 % 25.4 mm
14:14 -10.3 °C -11.4 °C 34327.3 hPa SW 6 km/h 6 km/h 87 % 25.4 mm
14:19 -10.3 °C -11.4 °C 34327.3 hPa WNW 9 km/h 9 km/h 87 % 25.4 mm
14:24 -10.3 °C -11.5 °C 34327.3 hPa SW 3.1 km/h   87 % 25.4 mm
14:29 -10.3 °C -11.5 °C 34327.3 hPa SW 6 km/h 6 km/h 87 % 25.4 mm
14:34 -10.4 °C -11.6 °C 34327.3 hPa West 3.1 km/h   87 % 25.4 mm
14:39 -10.4 °C -11.6 °C 34327.3 hPa NNW 6.3 km/h 6.3 km/h 87 % 25.4 mm
14:44 -10.4 °C -11.6 °C 34327.3 hPa SW 3.1 km/h   87 % 25.4 mm
14:49 -10.4 °C -11.5 °C 34327.3 hPa West 3.1 km/h 3.1 km/h 88 % 25.4 mm
14:54 -10.4 °C -11.6 °C 34327.3 hPa WSW 3.7 km/h 3.7 km/h 87 % 25.4 mm
14:59 -10.4 °C -11.5 °C 34327.3 hPa SSW 6 km/h 6 km/h 88 % 25.4 mm
15:04 -10.4 °C -11.5 °C 34327.3 hPa Calm     88 % 25.4 mm
15:09 -10.3 °C -11.4 °C 34327.3 hPa WNW 3.1 km/h   88 % 25.4 mm
15:14 -10.3 °C -11.3 °C 34327.3 hPa Calm     89 % 50.8 mm
15:19 -10.3 °C -11.3 °C 34327.3 hPa SW 3.7 km/h   88 % 50.8 mm
15:24 -10.2 °C -11.2 °C 34327.3 hPa Calm     89 % 50.8 mm
15:29 -10.2 °C -11.2 °C 34327.3 hPa West 3.1 km/h   89 % 50.8 mm
15:34 -10.2 °C -11.2 °C 34327.3 hPa SW 6 km/h   89 % 50.8 mm
15:39 -10.2 °C -11.2 °C 34327.3 hPa Calm     89 % 25.4 mm
15:49 -10.3 °C -11.3 °C 34327.3 hPa Calm     89 % 25.4 mm
15:54 -10.2 °C -11.1 °C 34327.3 hPa Calm     90 % 25.4 mm
15:59 -10.2 °C -11.1 °C 34327.3 hPa Calm     90 % 25.4 mm
16:04 -10.1 °C -11 °C 34293.4 hPa SW 3.1 km/h   90 % 25.4 mm
16:09 -10.2 °C -11.1 °C 34293.4 hPa SW 3.7 km/h 5.1 km/h 90 % 25.4 mm
16:14 -10.1 °C -11 °C 34293.4 hPa SW 3.1 km/h   90 % 33.02 mm
16:19 -10.3 °C -11.3 °C 34327.3 hPa East 6 km/h 6 km/h 89 % 33.02 mm
16:24 -10.2 °C -11.2 °C 34327.3 hPa Calm     89 % 33.02 mm
16:29 -10.3 °C -11.3 °C 34327.3 hPa NE 8 km/h 8 km/h 89 % 33.02 mm
16:34 -10.2 °C -11.2 °C 34327.3 hPa ENE 7.6 km/h 7.6 km/h 89 % 33.02 mm
16:39 -10.3 °C -11.3 °C 34327.3 hPa ENE 8.5 km/h 8.5 km/h 89 % 33.02 mm
16:44 -10.3 °C -11.3 °C 34327.3 hPa ENE 6 km/h 6 km/h 89 % 33.02 mm
16:49 -10.3 °C -11.3 °C 34256.2 hPa ENE 3.7 km/h 4.2 km/h 89 % 33.02 mm
16:50 -10.3 °C -11.3 °C 34256.2 hPa NNE 6.3 km/h 6.3 km/h 89 % 33.02 mm
16:55 -10.3 °C -11.3 °C 34256.2 hPa East 6 km/h 6 km/h 89 % 33.02 mm
17:00 -10.4 °C -11.4 °C 34256.2 hPa East 6 km/h 6 km/h 89 % 33.02 mm
17:05 -10.3 °C -11.3 °C 34293.4 hPa SW 7.6 km/h 7.6 km/h 89 % 33.02 mm
17:10 -10.2 °C -11.2 °C 34293.4 hPa South 6 km/h   89 % 33.02 mm
17:15 -10.2 °C -11.1 °C 34293.4 hPa SSE 6.3 km/h   90 % 0 mm
17:20 -10.2 °C -11.1 °C 34293.4 hPa SW 6.8 km/h 6.8 km/h 90 % 0 mm
17:25 -10.2 °C -11.2 °C 34293.4 hPa SSW 6 km/h   89 % 25.4 mm
17:30 -10.2 °C -11.1 °C 34293.4 hPa SW 6.3 km/h 6.3 km/h 90 % 25.4 mm
17:35 -10.2 °C -11.1 °C 34327.3 hPa West 3.1 km/h 3.1 km/h 90 % 25.4 mm
17:40 -10.3 °C -11.2 °C 34327.3 hPa Calm     90 % 25.4 mm
17:45 -10.3 °C -11.2 °C 34327.3 hPa SW 6 km/h 6 km/h 90 % 25.4 mm
17:50 -10.3 °C -11.2 °C 34293.4 hPa WSW 6 km/h 6 km/h 90 % 25.4 mm
17:55 -10.3 °C -11.2 °C 34293.4 hPa Calm     90 % 25.4 mm
18:00 -10.2 °C -11.1 °C 34293.4 hPa Calm     90 % 25.4 mm
18:05 -10.3 °C -11.2 °C 34293.4 hPa SSW 6 km/h 6 km/h 90 % 25.4 mm
18:10 -10.3 °C -11.2 °C 34293.4 hPa SW 6 km/h   90 % 25.4 mm
18:15 -10.3 °C -11.2 °C 34293.4 hPa Calm     90 % 25.4 mm
18:20 -10.3 °C -11.1 °C 34293.4 hPa SW 6 km/h   91 % 25.4 mm
18:25 -10.3 °C -11.2 °C 34293.4 hPa Calm     91 % 0 mm
18:30 -10.4 °C -11.3 °C 34293.4 hPa WSW 6 km/h 6 km/h 90 % 0 mm
18:35 -10.4 °C -11.2 °C 34293.4 hPa SE 3.1 km/h   91 % 0 mm
18:36 -10.4 °C -11.2 °C 34293.4 hPa SE 3.1 km/h   91 % 0 mm
18:41 -10.4 °C -11.2 °C 34293.4 hPa Calm     91 % 25.4 mm
18:46 -10.4 °C -11.3 °C 34293.4 hPa WSW 6 km/h 6 km/h 90 % 25.4 mm
18:51 -10.4 °C -11.3 °C 34327.3 hPa WSW 9 km/h 9 km/h 90 % 25.4 mm
18:56 -10.4 °C -11.3 °C 34327.3 hPa West 3.1 km/h   90 % 25.4 mm
19:01 -10.4 °C -11.2 °C 34327.3 hPa SW 6 km/h   91 % 25.4 mm
19:06 -10.5 °C -11.4 °C 34293.4 hPa West 3.1 km/h   90 % 25.4 mm
19:11 -10.5 °C -11.3 °C 34293.4 hPa Calm     91 % 25.4 mm
19:16 -10.5 °C -11.3 °C 34293.4 hPa Calm     91 % 25.4 mm
19:21 -10.5 °C -11.3 °C 34293.4 hPa Calm     91 % 25.4 mm
19:26 -10.5 °C -11.3 °C 34293.4 hPa West 3.1 km/h   91 % 25.4 mm
19:31 -10.5 °C -11.3 °C 34293.4 hPa WSW 3.1 km/h   91 % 25.4 mm
19:36 -10.5 °C -11.3 °C 34293.4 hPa Calm     91 % 25.4 mm
19:41 -10.6 °C -11.3 °C 34293.4 hPa Calm     91 % 0 mm
19:46 -10.6 °C -11.4 °C 34293.4 hPa NE 6 km/h 6 km/h 90 % 0 mm
19:51 -10.6 °C -11.3 °C 34256.2 hPa NNE 3.1 km/h   91 % 0 mm
19:56 -10.5 °C -11.3 °C 34256.2 hPa NNE 6 km/h 6 km/h 91 % 0 mm
20:01 -10.6 °C -11.3 °C 34256.2 hPa NNE 3.1 km/h   91 % 0 mm
20:06 -10.6 °C -11.5 °C 34293.4 hPa SSE 9 km/h 9 km/h 90 % 0 mm
20:11 -10.7 °C -11.6 °C 34293.4 hPa West 6 km/h 6 km/h 90 % 0 mm
20:16 -10.6 °C -11.5 °C 34293.4 hPa Calm     90 % 0 mm
20:21 -10.6 °C -11.5 °C 34327.3 hPa SW 8.5 km/h 8.5 km/h 90 % 0 mm
20:26 -10.6 °C -11.4 °C 34327.3 hPa WSW 6 km/h 6 km/h 90 % 0 mm
20:31 -10.6 °C -11.5 °C 34327.3 hPa SW 6 km/h   90 % 0 mm
20:36 -10.6 °C -11.5 °C 34327.3 hPa SSW 9 km/h 9 km/h 90 % 0 mm
20:41 -10.6 °C -11.4 °C 34327.3 hPa WSW 6 km/h 6 km/h 91 % 0 mm
20:46 -10.7 °C -11.4 °C 34327.3 hPa West 6 km/h 6 km/h 91 % 0 mm
20:51 -10.7 °C -11.6 °C 34327.3 hPa West 6 km/h 6 km/h 90 % 0 mm
20:56 -10.7 °C -11.6 °C 34327.3 hPa Calm     90 % 0 mm
21:01 -10.8 °C -11.7 °C 34327.3 hPa West 8 km/h 8 km/h 90 % 0 mm
21:06 -10.9 °C -11.8 °C 34327.3 hPa WNW 6 km/h 6 km/h 90 % 0 mm
21:11 -10.9 °C -11.8 °C 34327.3 hPa SW 6 km/h 6 km/h 90 % 0 mm
21:16 -10.9 °C -11.8 °C 34327.3 hPa WSW 6.3 km/h 6.3 km/h 90 % 0 mm
21:21 -10.9 °C -11.8 °C 34327.3 hPa WSW 6 km/h 6 km/h 90 % 0 mm
21:26 -10.9 °C -11.8 °C 34327.3 hPa SW 3.1 km/h 3.1 km/h 90 % 0 mm
21:31 -10.9 °C -11.8 °C 34327.3 hPa Calm     90 % 0 mm
21:36 -10.9 °C -11.8 °C 34327.3 hPa South 6 km/h 6 km/h 90 % 0 mm
21:41 -11 °C -11.9 °C 34327.3 hPa West 3.1 km/h 3.1 km/h 90 % 0 mm
21:46 -11 °C -11.9 °C 34327.3 hPa SSW 6 km/h   90 % 0 mm
21:51 -11 °C -11.9 °C 34361.1 hPa SW 6.3 km/h 6.3 km/h 90 % 0 mm
21:56 -11.1 °C -11.9 °C 34361.1 hPa SSW 6 km/h 6 km/h 90 % 0 mm
22:01 -11.1 °C -12 °C 34361.1 hPa SW 3.1 km/h   90 % 0 mm
22:06 -11.1 °C -12 °C 34327.3 hPa Calm     90 % 0 mm
22:11 -11.1 °C -12 °C 34327.3 hPa SSW 3.1 km/h 3.7 km/h 90 % 0 mm
22:15 -12.2 °C -13.1 °C 34293.4 hPa Calm     90 % 0 mm
22:16 -11.2 °C -12.1 °C 34327.3 hPa SSW 6 km/h 6 km/h 90 % 0 mm
22:21 -11.2 °C -12.1 °C 34327.3 hPa Calm     90 % 0 mm
22:25 -12.2 °C -13 °C 34256.2 hPa SW 2.6 km/h 5.1 km/h 90 % 0 mm
22:26 -11.2 °C -12.1 °C 34327.3 hPa SSW 3.1 km/h   90 % 0 mm
22:31 -11.3 °C -12.2 °C 34327.3 hPa Calm     90 % 0 mm
22:35 -12.2 °C -13.2 °C 34256.2 hPa SW 2.6 km/h 5.1 km/h 89 % 0 mm
22:36 -11.3 °C -12.2 °C 34327.3 hPa SSW 6 km/h 6 km/h 90 % 0 mm
22:41 -11.3 °C -12.2 °C 34327.3 hPa SSW 3.7 km/h 4.2 km/h 90 % 0 mm
22:45 -12.2 °C -13.2 °C 34256.2 hPa Calm     89 % 0 mm
22:46 -11.4 °C -12.3 °C 34327.3 hPa SW 6 km/h 6 km/h 90 % 0 mm
22:51 -11.4 °C -12.4 °C 34327.3 hPa SW 6 km/h 6 km/h 89 % 0 mm
22:55 -12.3 °C -13.2 °C 34256.2 hPa SW 2.6 km/h 5.1 km/h 89 % 0 mm
22:56 -11.4 °C -12.3 °C 34327.3 hPa SW 6 km/h 6 km/h 90 % 0 mm
23:01 -11.4 °C -12.3 °C 34327.3 hPa SW 3.1 km/h   90 % 0 mm
23:05 -12.4 °C -13.3 °C 34256.2 hPa Calm   5.1 km/h 89 % 0 mm
23:06 -11.4 °C -12.3 °C 34293.4 hPa SW 6 km/h 6 km/h 90 % 0 mm
23:11 -11.4 °C -12.3 °C 34293.4 hPa SW 6 km/h 6 km/h 90 % 0 mm
23:15 -12.3 °C -13.2 °C 34256.2 hPa SSW 2.6 km/h 7.7 km/h 89 % 0 mm
23:16 -11.4 °C -12.3 °C 34293.4 hPa SW 3.1 km/h   90 % 0 mm
23:21 -11.4 °C -12.3 °C 34327.3 hPa Calm     90 % 0 mm
23:25 -12.2 °C -13.2 °C 34256.2 hPa SW 5.1 km/h 5.1 km/h 89 % 0 mm
23:26 -11.4 °C -12.3 °C 34327.3 hPa Calm     90 % 0 mm
23:31 -11.4 °C -12.3 °C 34327.3 hPa Calm     90 % 0 mm
23:35 -12.2 °C -13.2 °C 34256.2 hPa Calm   2.6 km/h 89 % 0 mm
23:36 -11.5 °C -12.4 °C 34327.3 hPa SSW 6 km/h 6 km/h 90 % 0 mm
23:41 -11.6 °C -12.6 °C 34327.3 hPa SSW 6 km/h 6 km/h 89 % 0 mm
23:45 -12.4 °C -13.4 °C 34256.2 hPa WSW 5.1 km/h 7.7 km/h 89 % 0 mm
23:46 -11.6 °C -12.6 °C 34327.3 hPa SSW 6 km/h 6 km/h 89 % 0 mm
23:51 -11.6 °C -12.6 °C 34327.3 hPa Calm     89 % 0 mm
23:55 -12.4 °C -13.4 °C 34256.2 hPa SW 7.7 km/h 7.7 km/h 89 % 0 mm
23:56 -11.6 °C -12.6 °C 34327.3 hPa SW 3.1 km/h 3.1 km/h 89 % 0 mm
Meteo Sesrovires
Elogis d' Weather Underground - 2 mb

Guio original per  Jim McMurry - jmcmurry@mwt.net Adaptat per a la plantilla per  Wim van der Kuil - Leuven-Template.eu

Trobareu la nostra informacio del temps tambe a:

Weather Underground

AWEKAS